sensor_id;sensor_type;location;lat;lon;timestamp;P1;durP1;ratioP1;P2;durP2;ratioP2
30215;SDS011;17028;47.642;8.070;2022-07-04T00:04:46;1.48;;;1.10;;
30215;SDS011;17028;47.642;8.070;2022-07-04T00:09:47;1.67;;;1.00;;
30215;SDS011;17028;47.642;8.070;2022-07-04T00:14:48;1.15;;;0.90;;
30215;SDS011;17028;47.642;8.070;2022-07-04T00:19:49;1.60;;;0.90;;
30215;SDS011;17028;47.642;8.070;2022-07-04T00:24:50;1.48;;;0.80;;
30215;SDS011;17028;47.642;8.070;2022-07-04T00:29:51;1.77;;;0.90;;
30215;SDS011;17028;47.642;8.070;2022-07-04T00:34:52;2.17;;;1.10;;
30215;SDS011;17028;47.642;8.070;2022-07-04T00:39:53;1.65;;;0.90;;
30215;SDS011;17028;47.642;8.070;2022-07-04T00:44:55;1.23;;;0.88;;
30215;SDS011;17028;47.642;8.070;2022-07-04T00:49:56;1.63;;;1.02;;
30215;SDS011;17028;47.642;8.070;2022-07-04T00:54:57;1.77;;;1.00;;
30215;SDS011;17028;47.642;8.070;2022-07-04T01:00:01;1.50;;;1.10;;
30215;SDS011;17028;47.642;8.070;2022-07-04T01:05:02;2.28;;;1.10;;
30215;SDS011;17028;47.642;8.070;2022-07-04T01:10:03;1.52;;;0.95;;
30215;SDS011;17028;47.642;8.070;2022-07-04T01:15:05;1.65;;;1.00;;
30215;SDS011;17028;47.642;8.070;2022-07-04T01:20:10;1.50;;;0.90;;
30215;SDS011;17028;47.642;8.070;2022-07-04T01:25:15;1.95;;;1.00;;
30215;SDS011;17028;47.642;8.070;2022-07-04T01:30:16;3.15;;;1.20;;
30215;SDS011;17028;47.642;8.070;2022-07-04T01:35:17;1.48;;;1.05;;
30215;SDS011;17028;47.642;8.070;2022-07-04T01:40:18;3.40;;;1.13;;
30215;SDS011;17028;47.642;8.070;2022-07-04T01:45:19;2.33;;;1.20;;
30215;SDS011;17028;47.642;8.070;2022-07-04T01:50:20;3.65;;;1.33;;
30215;SDS011;17028;47.642;8.070;2022-07-04T01:55:21;1.75;;;1.10;;
30215;SDS011;17028;47.642;8.070;2022-07-04T02:00:23;1.80;;;1.30;;
30215;SDS011;17028;47.642;8.070;2022-07-04T02:05:43;1.65;;;1.00;;
30215;SDS011;17028;47.642;8.070;2022-07-04T02:10:44;1.67;;;0.98;;
30215;SDS011;17028;47.642;8.070;2022-07-04T02:15:45;2.00;;;1.25;;
30215;SDS011;17028;47.642;8.070;2022-07-04T02:20:46;3.13;;;1.20;;
30215;SDS011;17028;47.642;8.070;2022-07-04T02:25:47;2.42;;;1.25;;
30215;SDS011;17028;47.642;8.070;2022-07-04T02:30:48;4.35;;;1.50;;
30215;SDS011;17028;47.642;8.070;2022-07-04T02:35:49;2.25;;;1.40;;
30215;SDS011;17028;47.642;8.070;2022-07-04T02:40:50;3.33;;;1.52;;
30215;SDS011;17028;47.642;8.070;2022-07-04T02:45:51;3.13;;;1.27;;
30215;SDS011;17028;47.642;8.070;2022-07-04T02:50:52;2.75;;;1.63;;
30215;SDS011;17028;47.642;8.070;2022-07-04T02:55:53;2.63;;;1.30;;
30215;SDS011;17028;47.642;8.070;2022-07-04T03:00:55;2.13;;;1.60;;
30215;SDS011;17028;47.642;8.070;2022-07-04T03:05:56;2.03;;;1.50;;
30215;SDS011;17028;47.642;8.070;2022-07-04T03:10:57;2.95;;;1.60;;
30215;SDS011;17028;47.642;8.070;2022-07-04T03:15:58;3.65;;;1.90;;
30215;SDS011;17028;47.642;8.070;2022-07-04T03:21:00;3.83;;;1.80;;
30215;SDS011;17028;47.642;8.070;2022-07-04T03:26:01;2.00;;;1.30;;
30215;SDS011;17028;47.642;8.070;2022-07-04T03:31:02;2.50;;;1.52;;
30215;SDS011;17028;47.642;8.070;2022-07-04T03:36:03;1.75;;;1.10;;
30215;SDS011;17028;47.642;8.070;2022-07-04T03:41:04;1.92;;;1.42;;
30215;SDS011;17028;47.642;8.070;2022-07-04T03:46:05;1.70;;;1.23;;
30215;SDS011;17028;47.642;8.070;2022-07-04T03:51:06;1.90;;;1.17;;
30215;SDS011;17028;47.642;8.070;2022-07-04T03:56:08;1.40;;;0.93;;
30215;SDS011;17028;47.642;8.070;2022-07-04T04:01:09;1.40;;;1.10;;
30215;SDS011;17028;47.642;8.070;2022-07-04T04:06:10;1.02;;;0.93;;
30215;SDS011;17028;47.642;8.070;2022-07-04T04:11:11;3.50;;;1.40;;
30215;SDS011;17028;47.642;8.070;2022-07-04T04:16:12;2.08;;;1.20;;
30215;SDS011;17028;47.642;8.070;2022-07-04T04:21:13;1.65;;;1.15;;
30215;SDS011;17028;47.642;8.070;2022-07-04T04:26:14;4.00;;;1.55;;
30215;SDS011;17028;47.642;8.070;2022-07-04T04:31:15;2.60;;;1.75;;
30215;SDS011;17028;47.642;8.070;2022-07-04T04:36:17;3.38;;;1.73;;
30215;SDS011;17028;47.642;8.070;2022-07-04T04:41:18;4.32;;;1.80;;
30215;SDS011;17028;47.642;8.070;2022-07-04T04:46:20;2.38;;;1.70;;
30215;SDS011;17028;47.642;8.070;2022-07-04T04:51:21;3.63;;;1.95;;
30215;SDS011;17028;47.642;8.070;2022-07-04T04:56:22;3.92;;;2.08;;
30215;SDS011;17028;47.642;8.070;2022-07-04T05:01:23;3.22;;;1.92;;
30215;SDS011;17028;47.642;8.070;2022-07-04T05:06:24;3.67;;;1.95;;
30215;SDS011;17028;47.642;8.070;2022-07-04T05:11:25;2.47;;;1.70;;
30215;SDS011;17028;47.642;8.070;2022-07-04T05:16:27;2.35;;;1.80;;
30215;SDS011;17028;47.642;8.070;2022-07-04T05:21:28;2.10;;;1.50;;
30215;SDS011;17028;47.642;8.070;2022-07-04T05:26:29;3.08;;;2.10;;
30215;SDS011;17028;47.642;8.070;2022-07-04T05:31:30;3.25;;;1.77;;
30215;SDS011;17028;47.642;8.070;2022-07-04T05:36:31;4.10;;;2.20;;
30215;SDS011;17028;47.642;8.070;2022-07-04T05:41:32;3.92;;;2.10;;
30215;SDS011;17028;47.642;8.070;2022-07-04T05:46:33;3.78;;;1.95;;
30215;SDS011;17028;47.642;8.070;2022-07-04T05:51:34;2.78;;;2.00;;
30215;SDS011;17028;47.642;8.070;2022-07-04T05:56:35;3.55;;;2.22;;
30215;SDS011;17028;47.642;8.070;2022-07-04T06:01:38;2.70;;;1.92;;
30215;SDS011;17028;47.642;8.070;2022-07-04T06:06:40;3.20;;;2.10;;
30215;SDS011;17028;47.642;8.070;2022-07-04T06:11:41;2.65;;;1.83;;
30215;SDS011;17028;47.642;8.070;2022-07-04T06:16:42;3.05;;;1.88;;
30215;SDS011;17028;47.642;8.070;2022-07-04T06:21:43;6.18;;;2.15;;
30215;SDS011;17028;47.642;8.070;2022-07-04T06:26:44;3.17;;;2.17;;
30215;SDS011;17028;47.642;8.070;2022-07-04T06:31:45;3.90;;;2.10;;
30215;SDS011;17028;47.642;8.070;2022-07-04T06:36:46;3.95;;;2.20;;
30215;SDS011;17028;47.642;8.070;2022-07-04T06:41:47;4.32;;;1.95;;
30215;SDS011;17028;47.642;8.070;2022-07-04T06:46:48;3.85;;;2.20;;
30215;SDS011;17028;47.642;8.070;2022-07-04T06:51:49;2.90;;;2.10;;
30215;SDS011;17028;47.642;8.070;2022-07-04T06:56:50;3.83;;;2.20;;
30215;SDS011;17028;47.642;8.070;2022-07-04T07:01:51;3.15;;;1.73;;
30215;SDS011;17028;47.642;8.070;2022-07-04T07:06:52;3.38;;;2.08;;
30215;SDS011;17028;47.642;8.070;2022-07-04T07:11:53;3.55;;;2.28;;
30215;SDS011;17028;47.642;8.070;2022-07-04T07:16:54;3.83;;;2.15;;
30215;SDS011;17028;47.642;8.070;2022-07-04T07:21:56;3.60;;;2.40;;
30215;SDS011;17028;47.642;8.070;2022-07-04T07:26:57;2.80;;;1.95;;
30215;SDS011;17028;47.642;8.070;2022-07-04T07:31:58;3.70;;;1.80;;
30215;SDS011;17028;47.642;8.070;2022-07-04T07:36:59;4.40;;;2.42;;
30215;SDS011;17028;47.642;8.070;2022-07-04T07:42:00;3.17;;;1.90;;
30215;SDS011;17028;47.642;8.070;2022-07-04T07:47:01;4.07;;;2.10;;
30215;SDS011;17028;47.642;8.070;2022-07-04T07:52:03;3.35;;;2.00;;
30215;SDS011;17028;47.642;8.070;2022-07-04T07:57:04;5.90;;;2.25;;
30215;SDS011;17028;47.642;8.070;2022-07-04T08:02:05;4.82;;;2.15;;
30215;SDS011;17028;47.642;8.070;2022-07-04T08:07:08;4.78;;;1.90;;
30215;SDS011;17028;47.642;8.070;2022-07-04T08:12:12;3.17;;;2.08;;
30215;SDS011;17028;47.642;8.070;2022-07-04T08:17:13;4.65;;;1.83;;
30215;SDS011;17028;47.642;8.070;2022-07-04T08:22:14;4.65;;;1.92;;
30215;SDS011;17028;47.642;8.070;2022-07-04T08:27:15;3.38;;;2.13;;
30215;SDS011;17028;47.642;8.070;2022-07-04T08:32:16;3.00;;;1.73;;
30215;SDS011;17028;47.642;8.070;2022-07-04T08:37:17;5.38;;;1.60;;
30215;SDS011;17028;47.642;8.070;2022-07-04T08:42:19;4.82;;;2.85;;
30215;SDS011;17028;47.642;8.070;2022-07-04T08:47:22;2.80;;;1.73;;
30215;SDS011;17028;47.642;8.070;2022-07-04T08:52:43;2.97;;;1.77;;
30215;SDS011;17028;47.642;8.070;2022-07-04T08:57:53;4.88;;;1.50;;
30215;SDS011;17028;47.642;8.070;2022-07-04T09:03:14;3.72;;;1.70;;
30215;SDS011;17028;47.642;8.070;2022-07-04T09:08:15;3.05;;;1.77;;
30215;SDS011;17028;47.642;8.070;2022-07-04T09:13:17;2.70;;;1.55;;
30215;SDS011;17028;47.642;8.070;2022-07-04T09:18:23;3.60;;;1.55;;
30215;SDS011;17028;47.642;8.070;2022-07-04T09:23:27;3.10;;;1.63;;
30215;SDS011;17028;47.642;8.070;2022-07-04T09:28:32;3.53;;;1.70;;
30215;SDS011;17028;47.642;8.070;2022-07-04T09:33:48;3.33;;;1.27;;
30215;SDS011;17028;47.642;8.070;2022-07-04T09:44:16;3.35;;;1.58;;
30215;SDS011;17028;47.642;8.070;2022-07-04T09:49:17;3.80;;;1.58;;
30215;SDS011;17028;47.642;8.070;2022-07-04T09:59:26;2.85;;;1.45;;
30215;SDS011;17028;47.642;8.070;2022-07-04T10:04:44;3.42;;;1.40;;
30215;SDS011;17028;47.642;8.070;2022-07-04T10:09:47;2.50;;;1.40;;
30215;SDS011;17028;47.642;8.070;2022-07-04T10:14:48;3.13;;;1.52;;
30215;SDS011;17028;47.642;8.070;2022-07-04T10:19:49;1.80;;;1.30;;
30215;SDS011;17028;47.642;8.070;2022-07-04T10:24:52;2.00;;;1.40;;
30215;SDS011;17028;47.642;8.070;2022-07-04T10:29:53;5.50;;;1.83;;
30215;SDS011;17028;47.642;8.070;2022-07-04T10:34:55;7.78;;;1.50;;
30215;SDS011;17028;47.642;8.070;2022-07-04T10:39:56;2.58;;;1.40;;
30215;SDS011;17028;47.642;8.070;2022-07-04T10:45:00;3.58;;;1.40;;
30215;SDS011;17028;47.642;8.070;2022-07-04T10:50:01;3.42;;;1.60;;
30215;SDS011;17028;47.642;8.070;2022-07-04T10:55:12;2.20;;;1.45;;
30215;SDS011;17028;47.642;8.070;2022-07-04T11:00:13;2.58;;;1.40;;
30215;SDS011;17028;47.642;8.070;2022-07-04T11:05:15;3.08;;;1.58;;
30215;SDS011;17028;47.642;8.070;2022-07-04T11:20:26;3.55;;;1.98;;
30215;SDS011;17028;47.642;8.070;2022-07-04T11:25:29;3.00;;;1.77;;
30215;SDS011;17028;47.642;8.070;2022-07-04T11:30:30;2.95;;;1.50;;
30215;SDS011;17028;47.642;8.070;2022-07-04T11:35:31;3.40;;;1.60;;
30215;SDS011;17028;47.642;8.070;2022-07-04T11:40:44;3.25;;;1.42;;
30215;SDS011;17028;47.642;8.070;2022-07-04T11:46:10;2.63;;;1.42;;
30215;SDS011;17028;47.642;8.070;2022-07-04T11:51:17;2.17;;;1.40;;
30215;SDS011;17028;47.642;8.070;2022-07-04T11:56:18;2.85;;;1.10;;
30215;SDS011;17028;47.642;8.070;2022-07-04T12:01:26;2.55;;;1.30;;
30215;SDS011;17028;47.642;8.070;2022-07-04T12:06:28;2.45;;;1.30;;
30215;SDS011;17028;47.642;8.070;2022-07-04T12:11:50;2.05;;;1.27;;
30215;SDS011;17028;47.642;8.070;2022-07-04T12:22:10;3.05;;;1.63;;
30215;SDS011;17028;47.642;8.070;2022-07-04T12:27:20;2.60;;;1.40;;
30215;SDS011;17028;47.642;8.070;2022-07-04T12:32:21;4.22;;;1.60;;
30215;SDS011;17028;47.642;8.070;2022-07-04T12:37:22;3.28;;;1.40;;
30215;SDS011;17028;47.642;8.070;2022-07-04T12:42:23;2.30;;;1.35;;
30215;SDS011;17028;47.642;8.070;2022-07-04T12:47:24;2.25;;;1.50;;
30215;SDS011;17028;47.642;8.070;2022-07-04T12:52:28;2.50;;;1.70;;
30215;SDS011;17028;47.642;8.070;2022-07-04T12:57:29;4.90;;;1.47;;
30215;SDS011;17028;47.642;8.070;2022-07-04T13:02:30;5.63;;;1.50;;
30215;SDS011;17028;47.642;8.070;2022-07-04T13:07:31;4.38;;;2.05;;
30215;SDS011;17028;47.642;8.070;2022-07-04T13:12:32;3.38;;;1.60;;
30215;SDS011;17028;47.642;8.070;2022-07-04T13:17:33;2.50;;;1.40;;
30215;SDS011;17028;47.642;8.070;2022-07-04T13:22:34;2.88;;;1.60;;
30215;SDS011;17028;47.642;8.070;2022-07-04T13:27:35;3.85;;;1.70;;
30215;SDS011;17028;47.642;8.070;2022-07-04T13:32:36;4.05;;;1.63;;
30215;SDS011;17028;47.642;8.070;2022-07-04T13:37:38;3.97;;;1.40;;
30215;SDS011;17028;47.642;8.070;2022-07-04T13:42:39;5.47;;;1.80;;
30215;SDS011;17028;47.642;8.070;2022-07-04T13:47:59;3.38;;;1.65;;
30215;SDS011;17028;47.642;8.070;2022-07-04T13:53:01;3.25;;;1.63;;
30215;SDS011;17028;47.642;8.070;2022-07-04T13:58:02;3.00;;;1.67;;
30215;SDS011;17028;47.642;8.070;2022-07-04T14:03:04;2.72;;;1.58;;
30215;SDS011;17028;47.642;8.070;2022-07-04T14:08:05;4.00;;;1.42;;
30215;SDS011;17028;47.642;8.070;2022-07-04T14:13:06;3.60;;;1.65;;
30215;SDS011;17028;47.642;8.070;2022-07-04T14:18:07;4.72;;;1.50;;
30215;SDS011;17028;47.642;8.070;2022-07-04T14:23:14;2.95;;;1.58;;
30215;SDS011;17028;47.642;8.070;2022-07-04T14:28:15;3.63;;;1.80;;
30215;SDS011;17028;47.642;8.070;2022-07-04T14:33:16;3.47;;;1.75;;
30215;SDS011;17028;47.642;8.070;2022-07-04T14:38:17;3.55;;;1.73;;
30215;SDS011;17028;47.642;8.070;2022-07-04T14:43:19;4.72;;;1.75;;
30215;SDS011;17028;47.642;8.070;2022-07-04T14:48:20;2.67;;;1.60;;
30215;SDS011;17028;47.642;8.070;2022-07-04T14:53:21;2.45;;;1.73;;
30215;SDS011;17028;47.642;8.070;2022-07-04T14:58:22;3.47;;;1.80;;
30215;SDS011;17028;47.642;8.070;2022-07-04T15:03:23;3.35;;;1.83;;
30215;SDS011;17028;47.642;8.070;2022-07-04T15:08:24;3.28;;;1.90;;
30215;SDS011;17028;47.642;8.070;2022-07-04T15:13:25;2.92;;;1.70;;
30215;SDS011;17028;47.642;8.070;2022-07-04T15:18:28;2.60;;;1.63;;
30215;SDS011;17028;47.642;8.070;2022-07-04T15:23:30;3.47;;;1.83;;
30215;SDS011;17028;47.642;8.070;2022-07-04T15:28:49;2.85;;;1.80;;
30215;SDS011;17028;47.642;8.070;2022-07-04T15:33:50;2.90;;;1.60;;
30215;SDS011;17028;47.642;8.070;2022-07-04T15:38:51;2.88;;;1.60;;
30215;SDS011;17028;47.642;8.070;2022-07-04T15:43:52;2.55;;;1.58;;
30215;SDS011;17028;47.642;8.070;2022-07-04T15:48:53;2.67;;;1.65;;
30215;SDS011;17028;47.642;8.070;2022-07-04T15:53:54;3.83;;;1.85;;
30215;SDS011;17028;47.642;8.070;2022-07-04T15:58:55;2.78;;;1.73;;
30215;SDS011;17028;47.642;8.070;2022-07-04T16:03:56;6.65;;;1.90;;
30215;SDS011;17028;47.642;8.070;2022-07-04T16:08:57;3.22;;;1.85;;
30215;SDS011;17028;47.642;8.070;2022-07-04T16:13:58;3.42;;;1.85;;
30215;SDS011;17028;47.642;8.070;2022-07-04T16:19:00;2.50;;;1.80;;
30215;SDS011;17028;47.642;8.070;2022-07-04T16:24:01;4.53;;;1.80;;
30215;SDS011;17028;47.642;8.070;2022-07-04T16:29:03;2.60;;;1.60;;
30215;SDS011;17028;47.642;8.070;2022-07-04T16:34:05;2.78;;;1.80;;
30215;SDS011;17028;47.642;8.070;2022-07-04T16:39:06;2.25;;;1.67;;
30215;SDS011;17028;47.642;8.070;2022-07-04T16:44:07;2.95;;;1.67;;
30215;SDS011;17028;47.642;8.070;2022-07-04T16:49:08;2.80;;;1.60;;
30215;SDS011;17028;47.642;8.070;2022-07-04T16:54:10;3.38;;;2.00;;
30215;SDS011;17028;47.642;8.070;2022-07-04T16:59:11;2.42;;;1.52;;
30215;SDS011;17028;47.642;8.070;2022-07-04T17:04:12;1.77;;;1.40;;
30215;SDS011;17028;47.642;8.070;2022-07-04T17:09:13;3.22;;;1.98;;
30215;SDS011;17028;47.642;8.070;2022-07-04T17:14:14;3.42;;;1.77;;
30215;SDS011;17028;47.642;8.070;2022-07-04T17:19:15;3.75;;;1.70;;
30215;SDS011;17028;47.642;8.070;2022-07-04T17:24:16;3.40;;;1.83;;
30215;SDS011;17028;47.642;8.070;2022-07-04T17:29:17;3.40;;;2.00;;
30215;SDS011;17028;47.642;8.070;2022-07-04T17:34:18;2.40;;;1.50;;
30215;SDS011;17028;47.642;8.070;2022-07-04T17:39:19;2.80;;;1.70;;
30215;SDS011;17028;47.642;8.070;2022-07-04T17:44:20;2.13;;;1.60;;
30215;SDS011;17028;47.642;8.070;2022-07-04T17:49:26;2.40;;;1.55;;
30215;SDS011;17028;47.642;8.070;2022-07-04T17:54:27;3.45;;;1.70;;
30215;SDS011;17028;47.642;8.070;2022-07-04T17:59:28;4.18;;;2.20;;
30215;SDS011;17028;47.642;8.070;2022-07-04T18:04:29;4.65;;;2.05;;
30215;SDS011;17028;47.642;8.070;2022-07-04T18:09:32;3.13;;;2.03;;
30215;SDS011;17028;47.642;8.070;2022-07-04T18:14:33;5.57;;;2.40;;
30215;SDS011;17028;47.642;8.070;2022-07-04T18:19:34;4.68;;;1.90;;
30215;SDS011;17028;47.642;8.070;2022-07-04T18:24:35;3.45;;;1.70;;
30215;SDS011;17028;47.642;8.070;2022-07-04T18:29:36;3.15;;;2.22;;
30215;SDS011;17028;47.642;8.070;2022-07-04T18:34:37;3.67;;;2.30;;
30215;SDS011;17028;47.642;8.070;2022-07-04T18:39:38;3.08;;;2.00;;
30215;SDS011;17028;47.642;8.070;2022-07-04T18:44:39;3.55;;;1.95;;
30215;SDS011;17028;47.642;8.070;2022-07-04T18:49:40;2.20;;;1.52;;
30215;SDS011;17028;47.642;8.070;2022-07-04T18:54:42;1.90;;;1.48;;
30215;SDS011;17028;47.642;8.070;2022-07-04T18:59:43;1.83;;;1.42;;
30215;SDS011;17028;47.642;8.070;2022-07-04T19:04:45;2.20;;;1.48;;
30215;SDS011;17028;47.642;8.070;2022-07-04T19:09:46;1.67;;;1.30;;
30215;SDS011;17028;47.642;8.070;2022-07-04T19:14:47;1.80;;;1.30;;
30215;SDS011;17028;47.642;8.070;2022-07-04T19:19:49;1.75;;;1.48;;
30215;SDS011;17028;47.642;8.070;2022-07-04T19:24:50;2.08;;;1.60;;
30215;SDS011;17028;47.642;8.070;2022-07-04T19:29:51;3.20;;;2.00;;
30215;SDS011;17028;47.642;8.070;2022-07-04T19:34:52;2.78;;;1.92;;
30215;SDS011;17028;47.642;8.070;2022-07-04T19:39:53;4.13;;;2.30;;
30215;SDS011;17028;47.642;8.070;2022-07-04T19:44:54;3.35;;;2.22;;
30215;SDS011;17028;47.642;8.070;2022-07-04T19:49:55;3.63;;;2.40;;
30215;SDS011;17028;47.642;8.070;2022-07-04T19:55:04;3.20;;;2.10;;
30215;SDS011;17028;47.642;8.070;2022-07-04T20:00:07;2.40;;;1.90;;
30215;SDS011;17028;47.642;8.070;2022-07-04T20:05:10;3.13;;;2.28;;
30215;SDS011;17028;47.642;8.070;2022-07-04T20:10:11;2.65;;;1.95;;
30215;SDS011;17028;47.642;8.070;2022-07-04T20:15:12;3.05;;;2.03;;
30215;SDS011;17028;47.642;8.070;2022-07-04T20:20:15;3.30;;;1.83;;
30215;SDS011;17028;47.642;8.070;2022-07-04T20:25:16;1.92;;;1.60;;
30215;SDS011;17028;47.642;8.070;2022-07-04T20:30:17;2.25;;;1.50;;
30215;SDS011;17028;47.642;8.070;2022-07-04T20:35:18;2.40;;;1.50;;
30215;SDS011;17028;47.642;8.070;2022-07-04T20:40:19;2.40;;;1.58;;
30215;SDS011;17028;47.642;8.070;2022-07-04T20:45:20;2.17;;;1.50;;
30215;SDS011;17028;47.642;8.070;2022-07-04T20:50:21;2.00;;;1.30;;
30215;SDS011;17028;47.642;8.070;2022-07-04T20:55:23;1.42;;;1.20;;
30215;SDS011;17028;47.642;8.070;2022-07-04T21:00:25;1.60;;;1.30;;
30215;SDS011;17028;47.642;8.070;2022-07-04T21:05:26;1.40;;;1.20;;
30215;SDS011;17028;47.642;8.070;2022-07-04T21:10:27;2.78;;;1.40;;
30215;SDS011;17028;47.642;8.070;2022-07-04T21:15:28;1.90;;;1.40;;
30215;SDS011;17028;47.642;8.070;2022-07-04T21:20:29;3.53;;;2.10;;
30215;SDS011;17028;47.642;8.070;2022-07-04T21:25:30;2.83;;;1.80;;
30215;SDS011;17028;47.642;8.070;2022-07-04T21:30:31;3.13;;;2.00;;
30215;SDS011;17028;47.642;8.070;2022-07-04T21:35:32;3.15;;;2.15;;
30215;SDS011;17028;47.642;8.070;2022-07-04T21:40:33;3.50;;;1.90;;
30215;SDS011;17028;47.642;8.070;2022-07-04T21:45:34;3.83;;;2.20;;
30215;SDS011;17028;47.642;8.070;2022-07-04T21:50:35;3.42;;;1.88;;
30215;SDS011;17028;47.642;8.070;2022-07-04T21:55:36;2.90;;;1.83;;
30215;SDS011;17028;47.642;8.070;2022-07-04T22:00:40;2.50;;;1.55;;
30215;SDS011;17028;47.642;8.070;2022-07-04T22:05:42;3.08;;;1.70;;
30215;SDS011;17028;47.642;8.070;2022-07-04T22:10:43;2.25;;;1.67;;
30215;SDS011;17028;47.642;8.070;2022-07-04T22:15:44;2.28;;;1.55;;
30215;SDS011;17028;47.642;8.070;2022-07-04T22:20:45;2.70;;;1.60;;
30215;SDS011;17028;47.642;8.070;2022-07-04T22:25:46;1.40;;;1.13;;
30215;SDS011;17028;47.642;8.070;2022-07-04T22:30:47;2.88;;;1.60;;
30215;SDS011;17028;47.642;8.070;2022-07-04T22:35:48;4.07;;;1.35;;
30215;SDS011;17028;47.642;8.070;2022-07-04T22:40:49;2.63;;;1.30;;
30215;SDS011;17028;47.642;8.070;2022-07-04T22:45:51;2.22;;;1.48;;
30215;SDS011;17028;47.642;8.070;2022-07-04T22:50:52;1.95;;;1.20;;
30215;SDS011;17028;47.642;8.070;2022-07-04T22:56:11;2.42;;;1.40;;
30215;SDS011;17028;47.642;8.070;2022-07-04T23:01:13;2.88;;;1.50;;
30215;SDS011;17028;47.642;8.070;2022-07-04T23:06:15;2.75;;;1.42;;
30215;SDS011;17028;47.642;8.070;2022-07-04T23:11:16;1.48;;;1.00;;
30215;SDS011;17028;47.642;8.070;2022-07-04T23:16:17;1.70;;;1.10;;
30215;SDS011;17028;47.642;8.070;2022-07-04T23:21:18;1.73;;;1.08;;
30215;SDS011;17028;47.642;8.070;2022-07-04T23:26:19;2.40;;;1.30;;
30215;SDS011;17028;47.642;8.070;2022-07-04T23:31:20;1.92;;;1.40;;
30215;SDS011;17028;47.642;8.070;2022-07-04T23:36:21;1.48;;;1.20;;
30215;SDS011;17028;47.642;8.070;2022-07-04T23:41:22;2.00;;;0.98;;
30215;SDS011;17028;47.642;8.070;2022-07-04T23:46:23;1.50;;;1.10;;
30215;SDS011;17028;47.642;8.070;2022-07-04T23:51:24;1.67;;;1.00;;
30215;SDS011;17028;47.642;8.070;2022-07-04T23:56:25;1.63;;;1.17;;
